Aviation

Metar/Speci

station

VRMH

METAR VRMH 050400Z 32003KT 9999 FEW018 29/25 Q1013=

21 minutes ago

VRMM

METAR VRMM 050400Z 30009KT 9999 SCT018TCU 30/25 Q1013 NOSIG=

20 minutes ago

VRMK

METAR VRMK 050400Z 26011KT 6000 -SHRA SCT017 FEW018CB BKN130 27/25 Q1014 CB NNE,WSW=

18 minutes ago

VRMT

SPECI VRMT 050414Z 32012KT 3000 SHRA SCT015 FEW016CB OVC100 25/25 Q1013 CB N,S,SW,W=

2 minutes ago

VRMG

METAR VRMG 050400Z 28009KT 9999 FEW017 FEW018CB BKN110 28/25 Q1013 CB N,NE,E TEMPO 5000 SHRA=

21 minutes ago

Synop

station

43533

AAXX 05034 43533 42470 23403 10286 20256 30129 40131 82242 333 20253 59003 82818 555 11803=

1 hour ago

43555

AAXX 05034 43555 42470 52909 10290 20249 30129 40131 83302 333 20273 59001 82818 81919 84078 555 11349=

1 hour ago

43577

AAXX 05034 43577 41465 72707 10281 20251 30134 40136 70282 82232 333 20243 58001 82818 86363 555 11559=

1 hour ago

43588

AAXX 05034 43588 41430 82915 10246 20243 30134 40135 78186 8492/ 333 20238 58003 83815 82916 88460 555 11721=

1 hour ago

43599

AAXX 05034 43599 41460 72911 10286 20265 30129 40131 70282 83962 333 20250 59005 82817 81918 86361 555 12277=

1 hour ago

Tafs

station

VRMH

VRMH 042300Z 0500/0606 30005KT 9999 FEW018TCU TEMPO 0500/0506 FEW018CB=

5 hours ago

VRMM

VRMM 042300Z 0500/0606 29011KT 9999 FEW018TCU TEMPO 0500/0506 4000 SHRA FEW018CB=

5 hours ago

VRMK

VRMK 042300Z 0500/0524 27007KT 9999 FEW018TCU TEMPO 0500/0506 5000 SHRA FEW018CB=

5 hours ago

VRMT

VRMT 042300Z 0500/0524 27010KT 9999 FEW017TCU TEMPO 0500/0506 4000 SHRA SCT017CB=

5 hours ago

VRMG

VRMG 042300Z 0500/0606 30010KT 9999 FEW017TCU TEMPO 0500/0506 4000 SHRA SCT017CB=

5 hours ago

Sigmet

VRMM

VRMF SIGMET 1 VALID 050330/050630 VRMM- VRMF MALE FIR EMBD TS FCST WI S0129 E07721-S0141 E07552-S0037 E07221-N0257 E07216-N0234 E07453-N0123 E07644-S0129 E07721 TOP FL420 STNR INTSF=

51 minutes ago

Flight folders

No flight folder available at the moment.